createdAt,value
2022-11-15T00:00:56.129Z,33.90
2022-11-15T00:03:26.711Z,26.13
2022-11-15T00:05:56.007Z,36.67
2022-11-15T00:08:26.199Z,30.77
2022-11-15T00:10:58.629Z,39.47
2022-11-15T00:13:28.177Z,31.43
2022-11-15T00:16:00.355Z,42.17
2022-11-15T00:18:29.689Z,32.67
2022-11-15T00:21:04.584Z,38.97
2022-11-15T00:23:35.198Z,38.23
2022-11-15T00:26:04.451Z,39.50
2022-11-15T00:28:33.212Z,32.20
2022-11-15T00:31:05.818Z,41.40
2022-11-15T00:33:35.343Z,35.93
2022-11-15T00:36:05.496Z,43.50
2022-11-15T00:38:36.286Z,39.53
2022-11-15T00:41:09.307Z,35.43
2022-11-15T00:43:41.021Z,38.53
2022-11-15T00:46:10.902Z,34.17
2022-11-15T00:48:39.837Z,41.97
2022-11-15T00:51:08.599Z,38.83
2022-11-15T00:53:38.914Z,37.73
2022-11-15T00:56:07.905Z,31.53
2022-11-15T00:58:36.594Z,40.40
2022-11-15T01:01:10.893Z,39.17
2022-11-15T01:03:40.570Z,50.50
2022-11-15T01:06:10.425Z,39.23
2022-11-15T01:08:41.139Z,37.53
2022-11-15T01:11:12.375Z,37.73
2022-11-15T01:13:42.510Z,39.53
2022-11-15T01:16:14.216Z,39.37
2022-11-15T01:18:43.438Z,44.13
2022-11-15T01:21:14.190Z,48.50
2022-11-15T01:23:44.416Z,36.63
2022-11-15T01:26:14.996Z,33.87
2022-11-15T01:28:44.296Z,48.63
2022-11-15T01:31:16.355Z,45.07
2022-11-15T01:33:45.193Z,40.30
2022-11-15T01:36:16.216Z,31.57
2022-11-15T01:38:46.593Z,48.73
2022-11-15T01:41:20.655Z,41.00
2022-11-15T01:43:53.395Z,38.40
2022-11-15T01:46:29.228Z,38.73
2022-11-15T01:49:02.701Z,33.80
2022-11-15T01:51:34.152Z,33.23
2022-11-15T01:54:12.343Z,39.33
2022-11-15T01:56:45.980Z,34.53
2022-11-15T01:59:15.176Z,37.03
2022-11-15T02:01:45.055Z,34.30
2022-11-15T02:04:18.271Z,36.27
2022-11-15T02:06:50.643Z,41.20
2022-11-15T02:09:21.121Z,34.17
2022-11-15T02:11:52.991Z,34.37
2022-11-15T02:14:23.360Z,35.83
2022-11-15T02:17:01.649Z,38.90
2022-11-15T02:19:43.501Z,35.97
2022-11-15T02:22:26.821Z,41.00
2022-11-15T02:25:15.395Z,44.27
2022-11-15T02:28:17.132Z,40.20
2022-11-15T02:30:52.078Z,31.70
2022-11-15T02:33:31.599Z,46.53
2022-11-15T02:36:02.927Z,39.10
2022-11-15T02:38:39.864Z,40.67
2022-11-15T02:41:13.077Z,32.40
2022-11-15T02:43:58.732Z,34.50
2022-11-15T02:46:53.089Z,37.70
2022-11-15T02:49:21.998Z,25.47
2022-11-15T02:51:53.220Z,32.93
2022-11-15T02:54:25.617Z,41.23
2022-11-15T02:56:58.226Z,33.47
2022-11-15T02:59:59.535Z,37.07
2022-11-15T03:02:44.849Z,29.30
2022-11-15T03:05:22.630Z,40.80
2022-11-15T03:08:01.849Z,41.13
2022-11-15T03:10:44.347Z,34.63
2022-11-15T03:13:23.593Z,39.63
2022-11-15T03:16:00.066Z,36.07
2022-11-15T03:18:35.200Z,33.83
2022-11-15T03:21:09.830Z,34.37
2022-11-15T03:23:42.580Z,42.70
2022-11-15T03:26:16.220Z,33.73
2022-11-15T03:28:52.833Z,38.70
2022-11-15T03:31:45.636Z,27.73
2022-11-15T03:34:24.925Z,32.37
2022-11-15T03:36:54.518Z,32.80
2022-11-15T03:39:24.868Z,34.43
2022-11-15T03:42:04.462Z,40.80
2022-11-15T03:44:41.588Z,39.50
2022-11-15T03:47:14.740Z,42.53
2022-11-15T03:49:49.159Z,34.03
2022-11-15T03:52:21.330Z,30.70
2022-11-15T03:54:55.990Z,32.10
2022-11-15T03:57:24.943Z,30.93
2022-11-15T03:59:53.718Z,31.40
2022-11-15T04:02:22.687Z,26.97
2022-11-15T04:04:53.242Z,37.57
2022-11-15T04:07:22.293Z,36.70
2022-11-15T04:10:07.224Z,33.53
2022-11-15T04:12:37.607Z,39.17
2022-11-15T04:15:09.566Z,34.17
2022-11-15T04:17:40.579Z,35.20
2022-11-15T04:20:31.599Z,33.10
2022-11-15T04:23:19.181Z,36.00
2022-11-15T04:25:51.752Z,42.03
2022-11-15T04:28:21.858Z,35.30
2022-11-15T04:30:52.552Z,35.57
2022-11-15T04:33:22.281Z,30.03
2022-11-15T04:36:06.706Z,36.73
2022-11-15T04:38:35.897Z,36.23
2022-11-15T04:41:04.851Z,37.13
2022-11-15T04:43:33.834Z,33.87
2022-11-15T04:46:02.825Z,30.03
2022-11-15T04:48:31.604Z,35.40
2022-11-15T04:51:01.696Z,31.33
2022-11-15T04:53:30.851Z,42.73
2022-11-15T04:55:59.784Z,33.60
2022-11-15T04:58:28.500Z,38.73
2022-11-15T05:00:57.249Z,29.77
2022-11-15T05:03:43.246Z,39.37
2022-11-15T05:06:13.418Z,27.87
2022-11-15T05:08:42.174Z,34.07
2022-11-15T05:11:10.837Z,31.27
2022-11-15T05:13:39.682Z,34.97
2022-11-15T05:16:08.767Z,34.73
2022-11-15T05:18:37.949Z,31.43
2022-11-15T05:21:07.180Z,40.43
2022-11-15T05:23:37.348Z,37.50
2022-11-15T05:26:09.456Z,36.33
2022-11-15T05:28:39.580Z,38.83
2022-11-15T05:31:09.892Z,32.67
2022-11-15T05:33:40.761Z,28.37
2022-11-15T05:36:14.528Z,29.27
2022-11-15T05:38:44.626Z,39.93
2022-11-15T05:41:14.229Z,32.33
2022-11-15T05:43:44.380Z,32.63
2022-11-15T05:46:14.921Z,34.33
2022-11-15T05:48:46.459Z,32.97
2022-11-15T05:51:16.463Z,39.97
2022-11-15T05:53:47.517Z,46.53
2022-11-15T05:56:16.692Z,28.60
2022-11-15T05:58:46.049Z,39.00
2022-11-15T06:01:14.777Z,30.60
2022-11-15T06:03:43.424Z,29.20
2022-11-15T06:06:16.231Z,31.70
2022-11-15T06:08:49.074Z,35.63
2022-11-15T06:11:17.959Z,30.27
2022-11-15T06:13:46.843Z,32.10
2022-11-15T06:16:15.682Z,34.07
2022-11-15T06:18:44.400Z,35.67
2022-11-15T06:21:15.386Z,32.20
2022-11-15T06:23:44.221Z,38.13
2022-11-15T06:26:14.361Z,38.20
2022-11-15T06:28:43.133Z,39.63
2022-11-15T06:31:13.360Z,36.13
2022-11-15T06:33:42.328Z,40.87
2022-11-15T06:36:17.916Z,37.87
2022-11-15T06:38:46.891Z,32.77
2022-11-15T06:41:18.104Z,39.17
2022-11-15T06:43:46.949Z,36.10
2022-11-15T06:46:15.753Z,26.93
2022-11-15T06:48:44.482Z,30.53
2022-11-15T06:51:13.176Z,31.83
2022-11-15T06:53:41.888Z,37.10
2022-11-15T06:56:11.087Z,36.97
2022-11-15T06:58:41.036Z,39.03
2022-11-15T07:01:11.534Z,30.10
2022-11-15T07:03:41.786Z,32.10
2022-11-15T07:06:11.286Z,49.77
2022-11-15T07:08:40.232Z,48.57
2022-11-15T07:11:10.063Z,36.23
2022-11-15T07:13:40.349Z,39.93
2022-11-15T07:16:11.169Z,36.27
2022-11-15T07:18:41.225Z,48.00
2022-11-15T07:21:12.019Z,30.87
2022-11-15T07:23:41.362Z,40.57
2022-11-15T07:26:10.457Z,40.73
2022-11-15T07:28:40.597Z,31.77
2022-11-15T07:31:10.716Z,27.87
2022-11-15T07:33:39.505Z,38.73
2022-11-15T07:36:09.492Z,37.60
2022-11-15T07:38:42.791Z,31.40
2022-11-15T07:44:09.004Z,33.50
2022-11-15T07:46:48.447Z,38.23
2022-11-15T07:49:17.235Z,38.83
2022-11-15T07:51:46.594Z,37.23
2022-11-15T07:54:15.352Z,35.03
2022-11-15T07:56:44.126Z,30.93
2022-11-15T07:59:14.115Z,35.30
2022-11-15T08:01:42.818Z,30.80
2022-11-15T08:04:13.276Z,39.83
2022-11-15T08:06:41.896Z,38.07
2022-11-15T08:09:10.528Z,35.87
2022-11-15T08:11:39.239Z,36.43
2022-11-15T08:14:07.804Z,33.27
2022-11-15T08:16:37.773Z,32.93
2022-11-15T08:19:06.587Z,37.37
2022-11-15T08:21:36.159Z,38.47
2022-11-15T08:24:04.871Z,32.77
2022-11-15T08:26:33.755Z,24.10
2022-11-15T08:29:02.453Z,33.90
2022-11-15T08:31:31.127Z,31.83
2022-11-15T08:34:01.210Z,32.83
2022-11-15T08:36:34.827Z,30.50
2022-11-15T08:39:12.929Z,30.67
2022-11-15T08:41:41.735Z,24.70
2022-11-15T08:44:10.535Z,29.27
2022-11-15T08:46:39.398Z,26.40
2022-11-15T08:49:09.512Z,20.17
2022-11-15T08:51:38.152Z,31.63
2022-11-15T08:54:07.107Z,26.53
2022-11-15T08:56:35.725Z,24.83
2022-11-15T08:59:04.355Z,27.40
2022-11-15T09:01:33.768Z,25.33
2022-11-15T09:04:02.533Z,31.83
2022-11-15T09:06:32.871Z,24.23
2022-11-15T09:09:03.226Z,27.80
2022-11-15T09:11:31.821Z,24.50
2022-11-15T09:14:00.484Z,31.97
2022-11-15T09:16:30.171Z,29.70
2022-11-15T09:18:58.748Z,28.27
2022-11-15T09:21:27.545Z,24.53
2022-11-15T09:23:57.620Z,29.73
2022-11-15T09:26:26.773Z,24.43
2022-11-15T09:28:55.576Z,29.43
2022-11-15T09:31:24.113Z,28.10
2022-11-15T09:33:53.274Z,20.57
2022-11-15T09:36:23.070Z,29.93
2022-11-15T09:38:52.480Z,23.07
2022-11-15T09:41:51.479Z,25.00
2022-11-15T09:44:39.753Z,24.00
2022-11-15T09:47:34.425Z,26.93
2022-11-15T09:50:10.030Z,32.87
2022-11-15T09:52:41.514Z,27.70
2022-11-15T09:55:12.477Z,26.47
2022-11-15T09:57:53.155Z,23.40
2022-11-15T10:00:45.459Z,26.30
2022-11-15T10:03:16.400Z,19.80
2022-11-15T10:05:47.516Z,24.60
2022-11-15T10:08:31.289Z,20.77
2022-11-15T10:11:35.498Z,20.23
2022-11-15T10:13:55.864Z,18.17
2022-11-15T10:17:03.623Z,21.47
2022-11-15T10:19:41.322Z,24.50
2022-11-15T10:22:22.361Z,19.87
2022-11-15T10:24:54.564Z,17.20
2022-11-15T10:27:23.199Z,18.13
2022-11-15T10:29:53.276Z,19.90
2022-11-15T10:32:23.407Z,16.97
2022-11-15T10:34:52.623Z,19.20
2022-11-15T10:37:31.584Z,17.23
2022-11-15T10:40:08.304Z,23.30
2022-11-15T10:42:36.987Z,19.63
2022-11-15T10:45:25.908Z,20.10
2022-11-15T10:47:54.703Z,22.20
2022-11-15T10:50:31.592Z,16.37
2022-11-15T10:53:03.704Z,20.93
2022-11-15T10:55:35.049Z,22.43
2022-11-15T10:58:07.660Z,21.23
2022-11-15T11:00:40.359Z,18.97
2022-11-15T11:03:30.118Z,21.07
2022-11-15T11:06:13.414Z,16.67
2022-11-15T11:08:42.594Z,19.67
2022-11-15T11:11:11.378Z,16.03
2022-11-15T11:13:41.482Z,14.63
2022-11-15T11:16:39.170Z,20.93
2022-11-15T11:19:32.574Z,15.57
2022-11-15T11:22:07.968Z,15.53
2022-11-15T11:24:43.201Z,15.03
2022-11-15T11:27:24.177Z,15.20
2022-11-15T11:30:03.457Z,14.13
2022-11-15T11:32:44.466Z,14.60
2022-11-15T11:35:19.955Z,13.97
2022-11-15T11:37:52.861Z,14.03
2022-11-15T11:40:32.274Z,14.17
2022-11-15T11:43:08.412Z,16.43
2022-11-15T11:46:13.535Z,14.23
2022-11-15T11:48:46.872Z,15.07
2022-11-15T11:51:21.348Z,14.97
2022-11-15T11:53:57.729Z,13.03
2022-11-15T11:56:30.546Z,19.20
2022-11-15T11:59:08.134Z,15.53
2022-11-15T12:01:41.709Z,14.07
2022-11-15T12:04:16.836Z,19.87
2022-11-15T12:06:52.239Z,13.17
2022-11-15T12:09:26.097Z,12.57
2022-11-15T12:12:02.999Z,16.37
2022-11-15T12:14:36.283Z,14.57
2022-11-15T12:17:05.107Z,17.43
2022-11-15T12:19:36.192Z,13.90
2022-11-15T12:22:11.481Z,14.13
2022-11-15T12:24:43.794Z,14.00
2022-11-15T12:27:26.360Z,12.87
2022-11-15T12:29:59.030Z,17.00
2022-11-15T12:32:31.325Z,15.50
2022-11-15T12:35:02.600Z,15.73
2022-11-15T12:37:58.447Z,16.37
2022-11-15T12:40:38.430Z,14.67
2022-11-15T12:43:43.554Z,15.53
2022-11-15T12:46:59.111Z,13.97
2022-11-15T12:49:46.390Z,14.33
2022-11-15T12:52:17.497Z,13.03
2022-11-15T12:55:31.410Z,12.20
2022-11-15T12:58:30.047Z,17.40
2022-11-15T13:00:59.256Z,15.03
2022-11-15T13:03:30.138Z,14.17
2022-11-15T13:06:11.326Z,13.83
2022-11-15T13:08:48.424Z,12.63
2022-11-15T13:11:46.877Z,14.30
2022-11-15T13:14:41.663Z,13.53
2022-11-15T13:17:29.273Z,15.47
2022-11-15T13:20:04.711Z,14.07
2022-11-15T13:22:55.713Z,14.07
2022-11-15T13:26:00.819Z,12.53
2022-11-15T13:28:35.323Z,15.60
2022-11-15T13:31:22.559Z,19.67
2022-11-15T13:33:52.544Z,13.30
2022-11-15T13:36:23.962Z,18.50
2022-11-15T13:39:01.691Z,11.87
2022-11-15T13:41:32.101Z,13.50
2022-11-15T13:44:03.406Z,14.17
2022-11-15T13:46:33.719Z,13.53
2022-11-15T13:49:04.365Z,14.53
2022-11-15T13:51:38.636Z,13.43
2022-11-15T13:54:17.682Z,17.70
2022-11-15T13:56:49.571Z,11.13
2022-11-15T13:59:24.525Z,14.30
2022-11-15T14:01:54.233Z,12.40
2022-11-15T14:04:26.399Z,13.53
2022-11-15T14:06:58.171Z,12.13
2022-11-15T14:09:46.450Z,13.30
2022-11-15T14:12:31.391Z,15.23
2022-11-15T14:15:03.366Z,13.50
2022-11-15T14:17:45.697Z,13.47
2022-11-15T14:20:28.376Z,14.03
2022-11-15T14:22:58.467Z,14.27
2022-11-15T14:25:28.498Z,13.60
2022-11-15T14:28:34.661Z,12.67
2022-11-15T14:31:13.633Z,13.13
2022-11-15T14:33:43.257Z,13.30
2022-11-15T14:36:15.588Z,13.17
2022-11-15T14:38:44.908Z,11.73
2022-11-15T14:41:22.629Z,10.70
2022-11-15T14:43:53.752Z,12.23
2022-11-15T14:46:24.729Z,11.97
2022-11-15T14:48:53.361Z,15.57
2022-11-15T14:51:22.617Z,12.17
2022-11-15T14:53:52.155Z,12.17
2022-11-15T14:56:21.364Z,12.57
2022-11-15T14:58:50.466Z,11.27
2022-11-15T15:01:24.115Z,12.27
2022-11-15T15:03:55.107Z,12.77
2022-11-15T15:06:24.326Z,11.90
2022-11-15T15:08:53.389Z,12.27
2022-11-15T15:11:24.916Z,12.87
2022-11-15T15:13:53.875Z,12.70
2022-11-15T15:16:24.723Z,15.93
2022-11-15T15:18:53.511Z,12.83
2022-11-15T15:21:24.601Z,13.20
2022-11-15T15:23:55.076Z,14.50
2022-11-15T15:26:24.900Z,15.57
2022-11-15T15:28:53.524Z,12.67
2022-11-15T15:31:24.187Z,15.20
2022-11-15T15:33:53.030Z,13.03
2022-11-15T15:36:22.633Z,14.30
2022-11-15T15:38:53.551Z,14.40
2022-11-15T15:41:23.450Z,16.97
2022-11-15T15:43:52.796Z,12.43
2022-11-15T15:46:24.412Z,22.60
2022-11-15T15:48:53.503Z,14.33
2022-11-15T15:51:22.657Z,20.87
2022-11-15T15:53:52.676Z,17.53
2022-11-15T15:56:21.458Z,19.17
2022-11-15T15:58:50.609Z,13.43
2022-11-15T16:01:19.898Z,20.37
2022-11-15T16:03:50.966Z,14.50
2022-11-15T16:06:37.726Z,15.57
2022-11-15T16:09:14.991Z,14.00
2022-11-15T16:11:46.773Z,17.13
2022-11-15T16:14:15.644Z,16.27
2022-11-15T16:16:44.182Z,13.67
2022-11-15T16:19:14.532Z,17.07
2022-11-15T16:21:43.140Z,11.70
2022-11-15T16:24:11.798Z,22.40
2022-11-15T16:26:40.779Z,13.27
2022-11-15T16:29:10.973Z,22.00
2022-11-15T16:31:39.916Z,11.97
2022-11-15T16:34:08.865Z,15.60
2022-11-15T16:36:38.873Z,23.30
2022-11-15T16:39:07.771Z,15.37
2022-11-15T16:41:36.393Z,12.70
2022-11-15T16:44:05.079Z,13.30
2022-11-15T16:46:33.998Z,17.87
2022-11-15T16:49:03.040Z,12.57
2022-11-15T16:51:31.602Z,17.00
2022-11-15T16:54:01.591Z,12.63
2022-11-15T16:56:31.919Z,12.07
2022-11-15T16:59:02.043Z,14.27
2022-11-15T17:01:34.195Z,14.87
2022-11-15T17:04:13.189Z,14.43
2022-11-15T17:06:42.404Z,12.43
2022-11-15T17:09:15.978Z,12.07
2022-11-15T17:11:45.611Z,11.93
2022-11-15T17:14:14.632Z,13.47
2022-11-15T17:16:44.483Z,12.20
2022-11-15T17:19:17.495Z,11.53
2022-11-15T17:21:46.809Z,12.20
2022-11-15T17:24:17.479Z,15.90
2022-11-15T17:26:46.247Z,11.70
2022-11-15T17:29:14.832Z,17.10
2022-11-15T17:31:44.534Z,12.60
2022-11-15T17:34:13.253Z,11.50
2022-11-15T17:36:41.837Z,16.67
2022-11-15T17:39:10.470Z,22.47
2022-11-15T17:41:40.700Z,17.17
2022-11-15T17:44:09.635Z,15.13
2022-11-15T17:46:38.434Z,16.47
2022-11-15T17:49:07.454Z,20.30
2022-11-15T17:51:36.340Z,15.80
2022-11-15T17:54:05.270Z,14.80
2022-11-15T17:56:34.070Z,14.77
2022-11-15T17:59:07.759Z,15.33
2022-11-15T18:01:40.091Z,12.80
2022-11-15T18:04:10.871Z,13.43
2022-11-15T18:06:39.581Z,12.67
2022-11-15T18:09:08.487Z,15.17
2022-11-15T18:11:39.690Z,12.40
2022-11-15T18:14:13.663Z,13.83
2022-11-15T18:16:42.717Z,13.47
2022-11-15T18:19:13.729Z,12.57
2022-11-15T18:21:59.263Z,13.53
2022-11-15T18:24:29.837Z,16.57
2022-11-15T18:26:58.967Z,14.43
2022-11-15T18:29:29.729Z,16.63
2022-11-15T18:31:59.043Z,13.00
2022-11-15T18:34:32.334Z,19.33
2022-11-15T18:37:02.854Z,13.77
2022-11-15T18:39:31.956Z,14.10
2022-11-15T18:42:01.285Z,12.60
2022-11-15T18:44:31.902Z,12.80
2022-11-15T18:47:00.741Z,12.40
2022-11-15T18:49:29.651Z,12.63
2022-11-15T18:51:58.438Z,13.73
2022-11-15T18:54:31.236Z,15.13
2022-11-15T18:57:00.951Z,14.13
2022-11-15T18:59:31.153Z,15.77
2022-11-15T19:01:59.909Z,14.20
2022-11-15T19:04:28.847Z,12.23
2022-11-15T19:06:57.496Z,14.20
2022-11-15T19:09:32.885Z,13.30
2022-11-15T19:12:02.020Z,13.87
2022-11-15T19:14:32.772Z,14.60
2022-11-15T19:17:01.858Z,14.13
2022-11-15T19:19:30.668Z,16.13
2022-11-15T19:21:59.243Z,13.57
2022-11-15T19:24:29.952Z,19.53
2022-11-15T19:26:58.741Z,14.00
2022-11-15T19:29:27.462Z,16.53
2022-11-15T19:31:57.673Z,17.03
2022-11-15T19:34:26.382Z,16.57
2022-11-15T19:36:55.258Z,17.10
2022-11-15T19:39:24.098Z,16.37
2022-11-15T19:41:53.016Z,16.77
2022-11-15T19:44:22.853Z,17.77
2022-11-15T19:46:52.420Z,12.53
2022-11-15T19:49:22.952Z,17.43
2022-11-15T19:51:52.619Z,12.93
2022-11-15T19:54:21.369Z,19.10
2022-11-15T19:56:51.811Z,13.50
2022-11-15T19:59:21.917Z,12.83
2022-11-15T20:01:51.328Z,12.87
2022-11-15T20:04:20.222Z,21.77
2022-11-15T20:06:51.065Z,17.20
2022-11-15T20:09:21.217Z,18.20
2022-11-15T20:11:50.097Z,22.17
2022-11-15T20:14:19.093Z,19.17
2022-11-15T20:16:52.957Z,14.90
2022-11-15T20:19:23.247Z,19.03
2022-11-15T20:21:53.223Z,12.43
2022-11-15T20:24:22.539Z,17.43
2022-11-15T20:26:51.742Z,15.87
2022-11-15T20:29:21.316Z,20.53
2022-11-15T20:31:50.261Z,16.77
2022-11-15T20:34:22.223Z,16.10
2022-11-15T20:36:52.681Z,19.57
2022-11-15T20:39:21.538Z,16.90
2022-11-15T20:41:50.190Z,17.93
2022-11-15T20:44:19.358Z,18.73
2022-11-15T20:46:48.772Z,20.87
2022-11-15T20:49:17.396Z,17.63
2022-11-15T20:51:48.430Z,14.03
2022-11-15T20:54:20.017Z,16.87
2022-11-15T20:56:48.792Z,14.10
2022-11-15T20:59:17.654Z,16.03
2022-11-15T21:01:48.161Z,15.27
2022-11-15T21:04:16.965Z,19.03
2022-11-15T21:06:48.731Z,20.43
2022-11-15T21:09:36.314Z,17.27
2022-11-15T21:12:14.345Z,13.43
2022-11-15T21:14:44.621Z,16.57
2022-11-15T21:17:13.762Z,19.33
2022-11-15T21:19:42.876Z,14.10
2022-11-15T21:22:14.239Z,17.37
2022-11-15T21:24:44.389Z,14.80
2022-11-15T21:27:13.130Z,13.90
2022-11-15T21:29:48.589Z,18.90
2022-11-15T21:32:17.712Z,14.60
2022-11-15T21:34:47.005Z,16.87
2022-11-15T21:37:15.857Z,23.20
2022-11-15T21:39:48.858Z,21.37
2022-11-15T21:42:17.726Z,16.77
2022-11-15T21:44:46.412Z,13.53
2022-11-15T21:47:15.625Z,15.83
2022-11-15T21:49:44.488Z,18.47
2022-11-15T21:52:13.135Z,16.80
2022-11-15T21:54:44.709Z,17.40
2022-11-15T21:57:14.905Z,18.50
2022-11-15T21:59:57.565Z,19.07
2022-11-15T22:02:26.729Z,24.33
2022-11-15T22:04:55.417Z,16.90
2022-11-15T22:07:24.210Z,19.63
2022-11-15T22:09:53.176Z,18.83
2022-11-15T22:12:28.465Z,21.50
2022-11-15T22:14:58.612Z,18.20
2022-11-15T22:17:47.702Z,28.43
2022-11-15T22:20:43.047Z,18.83
2022-11-15T22:23:06.356Z,21.77
2022-11-15T22:25:35.218Z,21.77
2022-11-15T22:28:05.400Z,16.60
2022-11-15T22:30:34.075Z,18.63
2022-11-15T22:33:02.962Z,21.37
2022-11-15T22:35:31.736Z,26.83
2022-11-15T22:38:00.457Z,26.03
2022-11-15T22:40:29.175Z,31.93
2022-11-15T22:42:58.014Z,26.50
2022-11-15T22:45:30.139Z,23.13
2022-11-15T22:47:59.021Z,21.20
2022-11-15T22:50:27.906Z,24.73
2022-11-15T22:52:56.621Z,26.33
2022-11-15T22:55:25.316Z,28.43
2022-11-15T22:57:53.960Z,18.57
2022-11-15T23:00:23.579Z,23.80
2022-11-15T23:02:54.584Z,20.93
2022-11-15T23:05:23.478Z,24.07
2022-11-15T23:07:52.935Z,28.07
2022-11-15T23:10:38.945Z,23.47
2022-11-15T23:13:17.443Z,23.60
2022-11-15T23:16:07.336Z,23.87
2022-11-15T23:18:38.467Z,26.67
2022-11-15T23:21:11.572Z,22.37
2022-11-15T23:23:39.492Z,23.50
2022-11-15T23:26:09.136Z,30.60
2022-11-15T23:28:37.854Z,31.43
2022-11-15T23:31:25.532Z,28.33
2022-11-15T23:34:01.422Z,26.90
2022-11-15T23:36:30.911Z,25.57
2022-11-15T23:38:59.587Z,31.13
2022-11-15T23:41:28.261Z,30.03
2022-11-15T23:43:57.093Z,25.63
2022-11-15T23:46:27.720Z,30.97
2022-11-15T23:48:57.890Z,22.83
2022-11-15T23:51:27.091Z,25.47
2022-11-15T23:53:55.761Z,25.23
2022-11-15T23:56:25.005Z,26.23
2022-11-15T23:58:53.799Z,24.40
